Terminal Aerodrome Forecast
Issued by NWS Kansas City/Pleasant Hill, MO

Home | Current Version | Previous Version | Text Only | Print | Product List | Glossary On
Versions: 1 2 3 4 5 6 7 8 9 10 11 12 13 14 15 16 17 18
000
FTUS43 KEAX 291738
TAFMCI
TAF
KMCI 291738Z 2918/3018 33006KT P6SM OVC014
     FM292100 01006KT P6SM BKN025
     FM300700 04005KT 5SM BR OVC012
     FM301000 05005KT 3SM BR OVC005
     FM301500 05006KT P6SM BKN015=

USA.gov is the U.S. government's official web portal to all federal, state and local government web resources and services.